Aktualne dane pomiarowe

Uwaga, wersja testowa! Automatyczne pobieranie danych za pomocą narzędzi lub skryptów to umożliwiających jest zabronione.

Dane meteo z obszaru Polski uzyskane na podstawie depesz SYNOP pobieranych co godzinę z NWS. Najedź myszką na symbol przedstawiony w tabeli, aby uzyskać informacje co do jego znaczenia. Prosimy pamiętać, że to testowa wersja strony, która jeszcze nie jest ukończona. Stworzono również jest krótki FAQ dotyczący korzystania z tej podstrony Anomalie temperatury w chwili obecnej odniesione są do okresu referencyjnego 1951-2016. Okres ten będzie później zmieniony na 1981-2010. Kliknij ikonę aby pobrać plik CSV. Kliknij ikonę aby wygenerować mapę synoptyczną dla danego terminu.

Wybierz Datę:    

        

Częstochowa (12550)

Dane terminowe dla wybranej stacji. Kliknij datę, aby otrzymać dane z tego terminu dla wszystkich stacji.

TemperaturaZachmurzenieWiatrCiśnienieOpadyPogoda
 Data t td wb tx tn tg rh  Nt Nl Cl Cm Ch ws wd g1 g2 wx mslp ppp ch 24h 12h t ww ww w1 w2  
2019-06-24 23:00:00 20.1 14.0 16.1--- 6829.0--1wx---1025.5 990.8 0.3---------
2019-06-24 22:00:00 20.8 14.2 16.5--- 6640.0--1wx--11025.4 990.8 0.8---------
2019-06-24 21:00:00 21.0 13.7 16.3--- 6345.0--1wx--11025.3 990.7 1.2---------
2019-06-24 20:00:00 22.2 13.5 16.7--- 5850.0--1wx---1024.9 990.5 1.3---------
2019-06-24 19:00:00 23.3 13.2 17.0--- 5350.0--2wx--21024.3 990.0 0.9---------
2019-06-24 18:00:00 24.8 12.4 17.2 27.5 18.5- 4640.0--2wx-821023.6 989.5 0.5- 0.012------
2019-06-24 17:00:00 26.2 11.1 17.2--- 3945.0--2wx--21023.1 989.2 0.0---------
2019-06-24 16:00:00 26.8 8.7 16.3--- 3230.0--2wx--21022.9 989.1 -0.3---------
2019-06-24 15:00:00 26.9 9.3 16.6--- 3330.0--3wx-831022.8 989.0 -0.5---------
2019-06-24 14:00:00 26.9 9.3 16.6--- 3330.0--3wx---1023.0 989.2 -0.4---------
2019-06-24 13:00:00 27.0 8.9 16.5--- 3235.0--3wx---1023.2 989.4 -0.2---------
2019-06-24 12:00:00 26.3 10.0 16.7--- 3629.0--3wx-931023.4 989.5 0.1- 0.06------
2019-06-24 11:00:00 25.5 10.5 16.6--- 3930.0--3wx-831023.6 989.6 0.3---------
2019-06-24 10:00:00 25.1 10.5 16.4--- 4029.0--3wx-831023.7 989.6 0.4---------
2019-06-24 09:00:00 24.3 13.8 17.7--- 5235.0--3wx--31023.5 989.4 0.5---------
2019-06-24 08:00:00 23.4 14.7 17.8--- 5830.0--2wx---1023.6 989.3 0.5---------
2019-06-24 07:00:00 21.4 13.8 16.5--- 6228.0--2wx--21023.7 989.2 0.6---------
2019-06-24 06:00:00 18.5 11.6 14.2 22.2 14.4 14 6428.0--3wx--31023.7 988.9 0.7- 0.012----- 12.9
2019-06-24 05:00:00 17.0 9.9 12.7--- 6335.0--2wx--21023.8 988.8 0.8---------
2019-06-24 04:00:00 15.0 8.9 11.3--- 6735.0--2wx--21023.8 988.6 0.4---------
2019-06-24 03:00:00 14.5 7.8 10.5--- 6440.0--2wx--21023.5 988.2 0.0---------
2019-06-24 02:00:00 15.3 7.1 10.6--- 5845.0--3wx--31023.2 988.0 0.0---------
2019-06-24 01:00:00 16.1 7.0 10.9--- 5550.0--2wx--21023.3 988.2 0.4---------
2019-06-24 00:00:00 16.5 6.9 11.1--- 5345.0--2wx--21023.2 988.2 0.7- 0.06------
2019-06-23 23:00:00 16.3 7.2 11.1--- 5540.0--3wx--31023.1 988.0 1.1---------
2019-06-23 22:00:00 17.0 7.6 11.6--- 5450.0--2wx---1022.8 987.8 1.3---------
2019-06-23 21:00:00 18.0 8.0 12.2--- 5250.0--2wx--21022.3 987.5 1.3---------
2019-06-23 20:00:00 19.1 7.8 12.7--- 4845.0--3wx--31021.6 986.9 1.0---------
2019-06-23 19:00:00 20.6 7.2 13.1--- 4250.0--3wx--31021.0 986.5 0.8---------
2019-06-23 18:00:00 22.2 8.0 14.1 25.0 17.8- 4040.0--4wx--41020.5 986.2 0.6- 0.012------
2019-06-23 17:00:00 23.2 8.1 14.6--- 3850.0--5wx--51020.1 985.9 -0.1---------
2019-06-23 16:00:00 23.9 8.3 15.0--- 3740.0--5wx---1019.8 985.7 -0.6---------
2019-06-23 15:00:00 24.5 8.4 15.3--- 3635.0--4wx--41019.6 985.6 -0.9---------
2019-06-23 14:00:00 24.7 8.2 15.3--- 3530.0--3wx--31020.0 986.0 -0.5---------
2019-06-23 13:00:00 24.1 7.7 14.8--- 3527.0--3wx---1020.4 986.3 0.0---------
2019-06-23 12:00:00 24.1 8.1 15.0--- 3630.0--4wx-1041020.6 986.5 0.1- 0.06------
2019-06-23 11:00:00 23.5 8.7 15.0--- 3930.0--4wx-941020.6 986.5 0.0---------
2019-06-23 10:00:00 23.2 8.8 14.9--- 4029.0--4wx91041020.5 986.3 0.0---------
2019-06-23 09:00:00 22.1 8.6 14.3--- 4230.0--5wx101051020.7 986.4 0.3---------
2019-06-23 08:00:00 21.6 9.2 14.4--- 4530.0--5wx--51020.9 986.5 0.7---------
2019-06-23 07:00:00 19.8 9.9 13.9--- 5330.0--4wx---1020.9 986.3 0.4---------
2019-06-23 06:00:00 17.7 10.3 13.2 22.5 15.6 15 6235.0--3wx--31020.9 986.1 0.5- 0.012----- 11.0
2019-06-23 05:00:00 16.9 9.8 12.6--- 6340.0--3wx--31020.7 985.8 0.3---------
2019-06-23 04:00:00 15.9 10.0 12.2--- 6845.0--3wx--31020.9 985.9 0.5---------
2019-06-23 03:00:00 15.7 10.0 12.1--- 6945.0--3wx--31020.6 985.6 0.0---------
2019-06-23 02:00:00 15.8 10.3 12.3--- 7050.0--2wx---1020.5 985.5 0.1---------
2019-06-23 01:00:00 16.6 10.7 12.9--- 6845.0--3wx--31020.3 985.4 -0.3---------
2019-06-23 00:00:00 16.9 11.2 13.3--- 6940.0--3wx--31020.5 985.6 0.2- 0.06------
7.3 ms

 

Print Friendly, PDF & Email